Time;durP1;ratioP1;P1;durP2;ratioP2;P2;SDS_P1;SDS_P2;PMS_P1;PMS_P2;Temp;Humidity;BMP_temperature;BMP_pressure;BME280_temperature;BME280_humidity;BME280_pressure;Samples;Min_cycle;Max_cycle;Signal;HPM_P1;HPM_P2
2022/06/25 00:01:38;;;;;;;4.00;3.33;;;;;;;15.18;100.00;97867.72;5052667;28;20235;-70
2022/06/25 00:04:04;;;;;;;3.67;3.37;;;;;;;15.11;100.00;97863.94;5052975;28;20238;-70
2022/06/25 00:06:51;;;;;;;4.00;3.70;;;;;;;15.11;100.00;97858.63;5052873;28;20686;-70
2022/06/25 00:09:17;;;;;;;4.17;3.30;;;;;;;15.08;100.00;97864.22;5052708;28;20219;-70
2022/06/25 00:14:29;;;;;;;5.43;3.33;;;;;;;15.05;100.00;97861.00;5052701;28;20318;-72
2022/06/25 00:16:56;;;;;;;3.67;3.37;;;;;;;15.05;100.00;97863.66;5052533;28;20672;-70
2022/06/25 00:19:23;;;;;;;4.17;3.87;;;;;;;15.03;100.00;97860.31;5052810;28;20254;-70
2022/06/25 00:21:50;;;;;;;3.60;3.30;;;;;;;15.01;100.00;97860.44;5049804;28;20246;-70
2022/06/25 00:24:17;;;;;;;5.50;3.60;;;;;;;15.03;100.00;97865.63;5052745;28;20221;-70
2022/06/25 00:26:45;;;;;;;3.87;3.57;;;;;;;15.04;100.00;97873.44;5052198;28;20695;-70
2022/06/25 00:29:11;;;;;;;3.73;3.10;;;;;;;15.06;100.00;97871.50;5052565;28;20211;-70
2022/06/25 00:31:38;;;;;;;3.47;3.17;;;;;;;15.01;100.00;97863.09;5051281;28;20588;-70
2022/06/25 00:34:05;;;;;;;3.50;3.20;;;;;;;15.00;100.00;97872.06;5052014;28;20222;-70
2022/06/25 00:36:32;;;;;;;3.63;3.30;;;;;;;14.95;100.00;97865.47;5052077;28;20218;-70
2022/06/25 00:38:59;;;;;;;3.67;3.17;;;;;;;14.98;100.00;97873.19;5052451;28;20596;-70
2022/06/25 00:41:26;;;;;;;3.47;3.17;;;;;;;14.96;100.00;97873.31;5052196;28;20250;-70
2022/06/25 00:43:54;;;;;;;3.77;3.40;;;;;;;14.93;100.00;97873.63;5052063;28;20226;-70
2022/06/25 00:46:20;;;;;;;4.10;3.67;;;;;;;14.93;100.00;97880.75;5052829;28;20583;-70
2022/06/25 00:48:47;;;;;;;3.47;3.20;;;;;;;14.90;100.00;97871.22;5051907;28;20577;-70
2022/06/25 00:51:15;;;;;;;3.20;2.90;;;;;;;14.87;100.00;97882.16;5052887;28;20216;-70
2022/06/25 00:53:43;;;;;;;4.20;3.10;;;;;;;14.85;100.00;97878.75;5053116;28;20674;-70
2022/06/25 00:56:11;;;;;;;3.70;3.40;;;;;;;14.81;100.00;97872.06;5053361;28;20218;-69
2022/06/25 00:58:40;;;;;;;4.00;3.30;;;;;;;14.82;100.00;97872.88;5049648;28;20685;-69
2022/06/25 01:01:09;;;;;;;3.40;3.20;;;;;;;14.83;100.00;97874.56;5052937;28;20215;-69
2022/06/25 01:03:36;;;;;;;3.70;3.40;;;;;;;14.79;100.00;97874.00;5052927;28;20219;-69
2022/06/25 01:06:04;;;;;;;3.33;3.10;;;;;;;14.75;100.00;97866.44;5053265;28;20215;-70
2022/06/25 01:08:31;;;;;;;3.70;3.37;;;;;;;14.75;100.00;97871.75;5053025;28;20215;-70
2022/06/25 01:10:58;;;;;;;4.13;3.47;;;;;;;14.74;100.00;97872.75;5051749;28;20212;-71
2022/06/25 01:13:24;;;;;;;4.93;3.27;;;;;;;14.72;100.00;97874.72;5053042;28;20245;-70
2022/06/25 01:15:52;;;;;;;3.67;3.37;;;;;;;14.73;100.00;97874.53;5051049;28;20687;-71
2022/06/25 01:18:19;;;;;;;3.83;3.43;;;;;;;14.71;100.00;97870.34;5052799;28;20218;-70
2022/06/25 01:20:46;;;;;;;3.40;3.10;;;;;;;14.69;100.00;97877.63;5052621;28;20684;-70
2022/06/25 01:23:14;;;;;;;5.67;3.63;;;;;;;14.70;100.00;97879.31;5052885;28;20234;-70
2022/06/25 01:25:42;;;;;;;4.83;3.47;;;;;;;14.66;100.00;97884.06;5053054;28;20218;-70
2022/06/25 01:28:09;;;;;;;4.17;3.30;;;;;;;14.70;100.00;97873.97;5052810;28;20221;-70
2022/06/25 01:30:36;;;;;;;3.90;3.20;;;;;;;14.68;100.00;97875.94;5052626;28;20219;-70
2022/06/25 01:33:02;;;;;;;3.97;3.10;;;;;;;14.61;100.00;97877.47;5052774;28;20215;-70
2022/06/25 01:35:29;;;;;;;3.90;3.50;;;;;;;14.64;100.00;97871.88;5052529;28;20219;-70
2022/06/25 01:37:56;;;;;;;3.27;2.97;;;;;;;14.66;100.00;97883.22;5052873;28;20250;-70
2022/06/25 01:40:24;;;;;;;4.50;3.20;;;;;;;14.58;100.00;97875.06;5050863;28;20597;-70
2022/06/25 01:42:59;;;;;;;5.93;3.07;;;;;;;14.62;100.00;97881.81;5052797;28;20246;-70
2022/06/25 01:45:27;;;;;;;3.93;2.90;;;;;;;14.54;100.00;97885.16;5052914;28;20226;-70
2022/06/25 01:47:53;;;;;;;5.73;3.43;;;;;;;14.49;100.00;97887.38;5052689;28;20676;-71
2022/06/25 01:50:20;;;;;;;5.37;3.30;;;;;;;14.51;100.00;97876.59;5052860;28;20215;-71
2022/06/25 01:52:47;;;;;;;4.93;3.20;;;;;;;14.48;100.00;97884.88;5052521;28;20220;-71
2022/06/25 01:55:15;;;;;;;3.43;3.13;;;;;;;14.46;100.00;97879.69;5052652;28;20687;-71
2022/06/25 01:57:43;;;;;;;3.23;2.93;;;;;;;14.48;100.00;97884.88;5052519;28;20677;-71
2022/06/25 02:00:14;;;;;;;3.60;3.10;;;;;;;14.41;100.00;97887.22;5051335;28;20223;-71
2022/06/25 02:02:41;;;;;;;3.90;3.00;;;;;;;14.44;100.00;97891.44;5052294;28;20247;-71
2022/06/25 02:05:08;;;;;;;4.37;3.23;;;;;;;14.42;100.00;97885.41;5056055;28;20214;-71
2022/06/25 02:07:35;;;;;;;7.23;2.90;;;;;;;14.42;100.00;97890.72;5054910;28;20237;-71
2022/06/25 02:10:02;;;;;;;3.30;3.00;;;;;;;14.43;100.00;97887.09;5056384;28;20216;-71
2022/06/25 02:12:29;;;;;;;3.60;3.30;;;;;;;14.41;100.00;97883.69;5056491;28;20218;-71
2022/06/25 02:14:57;;;;;;;4.10;3.10;;;;;;;14.38;100.00;97889.31;5056410;28;20238;-71
2022/06/25 02:17:23;;;;;;;3.50;3.20;;;;;;;14.31;100.00;97888.16;5056083;28;20218;-71
2022/06/25 02:19:50;;;;;;;6.40;3.17;;;;;;;14.30;100.00;97894.47;5056674;28;20310;-71
2022/06/25 02:22:17;;;;;;;3.37;3.07;;;;;;;14.33;100.00;97894.19;5055995;28;20242;-71
2022/06/25 02:24:44;;;;;;;3.60;3.30;;;;;;;14.34;100.00;97904.69;5055955;28;20668;-71
2022/06/25 02:27:11;;;;;;;3.63;3.17;;;;;;;14.32;100.00;97900.47;5055881;28;20214;-71
2022/06/25 02:29:38;;;;;;;3.90;3.50;;;;;;;14.29;100.00;97901.59;5055779;28;20734;-71
2022/06/25 02:32:06;;;;;;;3.30;3.10;;;;;;;14.29;100.00;97895.44;5054113;28;20223;-71
2022/06/25 02:34:33;;;;;;;3.53;3.23;;;;;;;14.28;100.00;97899.06;5055761;28;20241;-71
2022/06/25 02:36:59;;;;;;;3.27;3.00;;;;;;;14.30;100.00;97900.59;5055835;28;20237;-71
2022/06/25 02:39:26;;;;;;;3.43;3.17;;;;;;;14.30;100.00;97913.06;5055886;28;20244;-71
2022/06/25 02:41:53;;;;;;;5.73;3.10;;;;;;;14.27;100.00;97908.00;5055912;28;20238;-71
2022/06/25 02:44:20;;;;;;;3.27;2.90;;;;;;;14.30;100.00;97910.41;5055485;28;20684;-71
2022/06/25 02:46:46;;;;;;;3.23;3.00;;;;;;;14.25;100.00;97913.47;5055559;28;20219;-71
2022/06/25 02:49:14;;;;;;;4.33;3.20;;;;;;;14.26;100.00;97901.03;5055727;28;20209;-71
2022/06/25 02:51:40;;;;;;;3.40;3.20;;;;;;;14.27;100.00;97908.00;5055762;28;20221;-70
2022/06/25 02:54:07;;;;;;;4.57;2.90;;;;;;;14.25;100.00;97909.97;5055650;28;20212;-70
2022/06/25 02:59:17;;;;;;;3.40;3.10;;;;;;;14.19;100.00;97905.19;5053682;28;20220;-70
2022/06/25 03:01:44;;;;;;;3.30;2.97;;;;;;;14.16;100.00;97910.72;5055584;28;20244;-71
2022/06/25 03:04:11;;;;;;;3.10;2.60;;;;;;;14.12;100.00;97914.66;5055662;28;20214;-71
2022/06/25 03:06:39;;;;;;;5.77;3.00;;;;;;;14.10;100.00;97908.59;5055218;28;20682;-71
2022/06/25 03:09:06;;;;;;;3.17;2.97;;;;;;;14.06;100.00;97904.53;5055064;28;20220;-71
2022/06/25 03:11:33;;;;;;;2.87;2.67;;;;;;;14.09;100.00;97913.09;5055297;28;20211;-71
2022/06/25 03:13:59;;;;;;;3.27;2.97;;;;;;;14.14;100.00;97897.59;5054856;28;20210;-71
2022/06/25 03:16:26;;;;;;;3.77;2.90;;;;;;;14.11;100.00;97900.50;5055309;28;20218;-71
2022/06/25 03:18:52;;;;;;;4.90;3.20;;;;;;;14.09;100.00;97909.56;5055119;28;20318;-71
2022/06/25 03:21:19;;;;;;;3.27;2.80;;;;;;;14.13;100.00;97903.03;5055259;28;20218;-72
2022/06/25 03:23:47;;;;;;;3.20;2.90;;;;;;;14.12;100.00;97904.84;5054685;28;20248;-72
2022/06/25 03:26:14;;;;;;;4.40;3.00;;;;;;;14.10;100.00;97906.78;5053788;28;20214;-72
2022/06/25 03:28:40;;;;;;;3.43;2.83;;;;;;;14.11;100.00;97900.50;5054950;28;20222;-71
2022/06/25 03:31:06;;;;;;;3.40;2.70;;;;;;;14.19;100.00;97900.69;5054972;28;20214;-71
2022/06/25 03:33:33;;;;;;;3.23;2.77;;;;;;;14.19;100.00;97911.34;5054703;28;20215;-70
2022/06/25 03:36:00;;;;;;;3.47;2.73;;;;;;;14.15;100.00;97904.59;5054947;28;20209;-71
2022/06/25 03:38:27;;;;;;;3.17;2.80;;;;;;;14.16;100.00;97900.09;5054874;28;20693;-71
2022/06/25 03:41:32;;;;;;;3.10;2.80;;;;;;;14.16;100.00;97894.78;5054737;28;20625;-70
2022/06/25 03:43:41;;;;;;;4.37;2.97;;;;;;;14.16;100.00;97905.41;5054377;28;20241;-70
2022/06/25 03:46:09;;;;;;;4.07;2.53;;;;;;;14.17;100.00;97907.13;5054195;28;20215;-70
2022/06/25 03:48:35;;;;;;;4.20;2.80;;;;;;;14.18;100.00;97898.16;5054580;28;20214;-72
2022/06/25 03:51:02;;;;;;;2.97;2.77;;;;;;;14.17;100.00;97907.13;5052896;28;20226;-71
2022/06/25 03:53:28;;;;;;;2.93;2.70;;;;;;;14.20;100.00;97912.19;5054505;28;20220;-71
2022/06/25 03:55:56;;;;;;;3.20;2.73;;;;;;;14.21;100.00;97913.88;5054616;28;20219;-71
2022/06/25 03:58:23;;;;;;;3.03;2.73;;;;;;;14.25;100.00;97909.97;5054625;28;20209;-70
2022/06/25 04:00:49;;;;;;;2.83;2.63;;;;;;;14.26;100.00;97914.31;5054257;28;20707;-71
2022/06/25 04:03:16;;;;;;;3.07;2.77;;;;;;;14.28;100.00;97915.00;5054103;28;20238;-70
2022/06/25 04:05:42;;;;;;;3.63;2.60;;;;;;;14.29;100.00;97911.41;5054289;28;20219;-71
2022/06/25 04:08:09;;;;;;;2.83;2.60;;;;;;;14.34;100.00;97919.78;5039923;28;20548;-71
2022/06/25 04:10:36;;;;;;;3.27;2.43;;;;;;;14.37;100.00;97924.84;5054367;28;20543;-70
2022/06/25 04:13:04;;;;;;;3.07;2.83;;;;;;;14.42;100.00;97922.63;5054309;28;20211;-70
2022/06/25 04:15:33;;;;;;;3.43;2.87;;;;;;;14.47;100.00;97931.88;5053855;28;20222;-70
2022/06/25 04:17:59;;;;;;;3.13;2.93;;;;;;;14.54;100.00;97933.03;5037490;28;20791;-70
2022/06/25 04:20:26;;;;;;;3.20;3.00;;;;;;;14.58;100.00;97931.78;5054039;28;20241;-70
2022/06/25 04:22:53;;;;;;;4.70;3.10;;;;;;;14.64;100.00;97927.72;5054205;28;20239;-71
2022/06/25 04:25:20;;;;;;;3.80;3.30;;;;;;;14.70;100.00;97937.81;5053932;28;20218;-70
2022/06/25 04:30:32;;;;;;;5.07;3.43;;;;;;;14.76;100.00;97950.59;5053806;28;20368;-70
2022/06/25 04:32:58;;;;;;;3.67;3.20;;;;;;;14.78;100.00;97951.31;5053453;28;20215;-70
2022/06/25 04:35:25;;;;;;;4.33;2.90;;;;;;;14.81;100.00;97953.69;5053579;28;20219;-70
2022/06/25 04:37:51;;;;;;;3.83;3.30;;;;;;;14.87;100.00;97958.47;5053470;28;20243;-70
2022/06/25 04:40:18;;;;;;;3.50;3.20;;;;;;;14.90;100.00;97959.03;5053684;28;20215;-71
2022/06/25 04:42:45;;;;;;;3.20;2.93;;;;;;;14.92;100.00;97954.41;5051998;28;20241;-70
2022/06/25 04:45:11;;;;;;;4.67;3.10;;;;;;;14.98;100.00;97963.66;5054328;28;20219;-71
2022/06/25 04:47:39;;;;;;;3.23;2.90;;;;;;;15.01;100.00;97958.91;5053388;28;20211;-71
2022/06/25 04:50:07;;;;;;;3.27;2.93;;;;;;;15.06;100.00;97963.81;5053272;28;20219;-71
2022/06/25 04:52:34;;;;;;;3.60;3.30;;;;;;;15.10;100.00;97963.41;5053030;28;20220;-71
2022/06/25 04:55:01;;;;;;;3.30;3.10;;;;;;;15.22;100.00;97966.78;5053312;28;20242;-70
2022/06/25 04:57:27;;;;;;;4.23;3.37;;;;;;;15.34;100.00;97963.88;5053279;28;20221;-70
2022/06/25 04:59:54;;;;;;;4.30;3.80;;;;;;;15.75;100.00;97970.72;5053494;28;20247;-71
2022/06/25 05:02:20;;;;;;;4.43;3.70;;;;;;;16.41;100.00;97963.44;5052996;28;20687;-71
2022/06/25 05:04:48;;;;;;;3.80;3.50;;;;;;;16.35;100.00;97961.34;5053152;28;20691;-71
2022/06/25 05:07:15;;;;;;;4.10;3.80;;;;;;;17.09;100.00;97960.31;5053135;28;20222;-71
2022/06/25 05:09:42;;;;;;;4.23;3.23;;;;;;;18.29;100.00;97950.66;5051429;28;20225;-71
2022/06/25 05:12:09;;;;;;;3.13;2.33;;;;;;;19.57;100.00;97937.78;5053107;28;20212;-71
2022/06/25 05:14:36;;;;;;;3.53;2.90;;;;;;;20.53;100.00;97923.44;5053272;28;20217;-71
2022/06/25 05:17:02;;;;;;;2.53;2.30;;;;;;;21.17;100.00;97924.06;5053202;28;20220;-72
2022/06/25 05:19:29;;;;;;;3.07;1.80;;;;;;;21.72;100.00;97913.94;5053071;28;20211;-72
2022/06/25 05:21:57;;;;;;;2.30;1.97;;;;;;;22.12;100.00;97920.81;5052827;28;20667;-72
2022/06/25 05:24:23;;;;;;;2.67;2.20;;;;;;;22.50;100.00;97931.38;5052712;28;20613;-72
2022/06/25 05:26:50;;;;;;;1.93;1.77;;;;;;;22.89;100.00;97966.13;5053096;28;20583;-72
2022/06/25 05:29:16;;;;;;;1.90;1.80;;;;;;;23.21;100.00;98007.03;5052738;28;20684;-72
2022/06/25 05:31:43;;;;;;;1.93;1.80;;;;;;;23.71;100.00;98011.59;5052691;28;20216;-72
2022/06/25 05:34:10;;;;;;;2.90;1.50;;;;;;;24.29;88.75;98020.31;5051265;28;20269;-73
2022/06/25 05:36:36;;;;;;;2.17;1.50;;;;;;;24.75;83.05;98021.53;5052455;28;20669;-72
2022/06/25 05:39:04;;;;;;;1.60;1.50;;;;;;;25.10;75.24;98015.13;5052715;28;20253;-72
2022/06/25 05:41:31;;;;;;;1.87;1.70;;;;;;;25.38;73.80;98018.63;5052629;28;20676;-72
2022/06/25 05:43:57;;;;;;;2.07;1.90;;;;;;;25.64;71.56;98013.31;5052769;28;20247;-73
2022/06/25 05:46:24;;;;;;;2.20;1.63;;;;;;;25.78;70.42;98017.72;5052802;28;20303;-72
2022/06/25 05:48:50;;;;;;;1.90;1.80;;;;;;;25.98;67.79;98020.53;5052985;28;20302;-72
2022/06/25 05:51:17;;;;;;;1.40;1.30;;;;;;;26.14;66.23;98023.69;5052994;28;20282;-73
2022/06/25 05:53:43;;;;;;;2.03;1.47;;;;;;;26.31;66.56;98026.81;5052835;28;20214;-73
2022/06/25 05:56:11;;;;;;;1.77;1.67;;;;;;;26.52;65.65;98032.88;5052841;28;20222;-73
2022/06/25 05:58:38;;;;;;;3.37;1.50;;;;;;;26.73;63.80;98031.88;5052895;28;20220;-72
2022/06/25 06:01:04;;;;;;;1.87;1.50;;;;;;;26.85;63.64;98030.19;5051294;28;20247;-72
2022/06/25 06:03:31;;;;;;;2.00;1.40;;;;;;;26.99;61.74;98038.09;5052388;28;20239;-72
2022/06/25 06:05:58;;;;;;;2.13;1.47;;;;;;;27.11;60.91;98030.97;5052350;28;20216;-72
2022/06/25 06:08:24;;;;;;;1.43;1.30;;;;;;;27.27;61.49;98025.16;5052404;28;20700;-72
2022/06/25 06:10:51;;;;;;;2.77;1.30;;;;;;;27.31;59.80;98031.78;5052440;28;20218;-71
2022/06/25 06:13:18;;;;;;;1.40;1.30;;;;;;;27.36;59.19;98039.31;5052807;28;20208;-71
2022/06/25 06:15:45;;;;;;;1.43;1.30;;;;;;;27.54;58.42;98043.00;5052682;28;20242;-72
2022/06/25 06:18:11;;;;;;;1.53;1.37;;;;;;;27.65;59.08;98039.63;5052649;28;20216;-72
2022/06/25 06:20:38;;;;;;;1.33;1.20;;;;;;;27.82;57.84;98047.06;5052597;28;20231;-72
2022/06/25 06:26:26;;;;;;;1.40;1.30;;;;;;;28.06;57.86;98048.22;5041458;28;20665;-72
2022/06/25 06:28:54;;;;;;;1.60;1.30;;;;;;;28.34;57.74;98040.50;5052472;28;20216;-72
2022/06/25 06:31:21;;;;;;;2.10;1.40;;;;;;;28.60;56.24;98051.19;5052455;28;20564;-72
2022/06/25 06:33:47;;;;;;;1.30;1.20;;;;;;;28.80;55.06;98043.75;5052501;28;20258;-72
2022/06/25 06:36:14;;;;;;;1.27;1.17;;;;;;;28.98;54.65;98043.81;5052296;28;20243;-72
2022/06/25 06:38:41;;;;;;;1.67;1.30;;;;;;;29.19;53.10;98054.28;5052514;28;20246;-72
2022/06/25 06:41:07;;;;;;;1.27;1.10;;;;;;;29.16;52.90;98054.72;5050886;28;20219;-72
2022/06/25 06:43:34;;;;;;;1.17;1.10;;;;;;;29.11;52.75;98047.22;5049899;28;20244;-72
2022/06/25 06:46:02;;;;;;;1.57;1.20;;;;;;;29.11;53.59;98054.56;5051204;28;20214;-72
2022/06/25 06:48:28;;;;;;;1.40;1.30;;;;;;;29.16;52.06;98057.44;5052221;28;20651;-72
2022/06/25 06:50:55;;;;;;;2.03;1.07;;;;;;;29.13;53.52;98052.44;5055154;28;20212;-71
2022/06/25 06:53:22;;;;;;;1.70;1.30;;;;;;;29.19;54.06;98059.72;5050532;28;20351;-74
2022/06/25 06:55:50;;;;;;;3.13;1.77;;;;;;;29.26;52.81;98050.44;5037303;28;20305;-73
2022/06/25 06:58:17;;;;;;;1.80;1.27;;;;;;;29.28;52.43;98061.09;5037335;28;20291;-73
2022/06/25 07:00:44;;;;;;;2.00;1.27;;;;;;;29.16;53.48;98055.53;5038473;28;20216;-73
2022/06/25 07:03:12;;;;;;;1.30;1.20;;;;;;;29.18;55.06;98058.06;5037231;28;20239;-71
2022/06/25 07:05:38;;;;;;;1.20;1.10;;;;;;;29.23;54.83;98058.22;5037306;28;20308;-72
2022/06/25 07:08:05;;;;;;;1.30;1.20;;;;;;;29.22;54.65;98051.13;5036928;28;20215;-72
2022/06/25 07:10:32;;;;;;;2.23;1.40;;;;;;;29.02;54.92;98056.75;5037958;28;20223;-72
2022/06/25 07:12:58;;;;;;;1.87;1.60;;;;;;;28.54;56.61;98054.81;5037656;28;20220;-71
2022/06/25 07:15:25;;;;;;;2.50;1.50;;;;;;;27.83;58.65;98053.34;5055192;28;20230;-70
2022/06/25 07:17:51;;;;;;;2.27;1.47;;;;;;;26.81;62.51;98047.94;5055246;28;20216;-70
2022/06/25 07:20:19;;;;;;;3.40;1.50;;;;;;;25.54;70.02;98049.94;5054157;28;20238;-71
2022/06/25 07:22:46;;;;;;;1.53;1.23;;;;;;;24.60;75.30;98045.16;5055315;28;20246;-70
2022/06/25 07:25:13;;;;;;;1.60;1.50;;;;;;;24.00;78.30;98041.19;5054864;28;20709;-70
2022/06/25 07:27:39;;;;;;;1.50;1.40;;;;;;;23.54;82.13;98035.25;5055244;28;20258;-71
2022/06/25 07:30:07;;;;;;;1.60;1.50;;;;;;;23.31;80.87;98039.97;5054927;28;20666;-70
2022/06/25 07:32:34;;;;;;;2.03;1.27;;;;;;;23.15;84.00;98040.13;5055130;28;20216;-70
2022/06/25 07:35:00;;;;;;;2.47;1.50;;;;;;;23.00;82.16;98046.53;5055134;28;20230;-70
2022/06/25 07:37:29;;;;;;;1.70;1.60;;;;;;;22.93;85.15;98035.63;5054811;28;20250;-70
2022/06/25 07:39:55;;;;;;;2.03;1.60;;;;;;;22.92;85.91;98036.66;5054909;28;20216;-70
2022/06/25 07:42:22;;;;;;;1.63;1.50;;;;;;;22.99;87.64;98026.81;5054776;28;20219;-70
2022/06/25 07:44:48;;;;;;;1.60;1.50;;;;;;;23.05;85.60;98028.75;5053190;28;20335;-70
2022/06/25 07:47:15;;;;;;;1.50;1.40;;;;;;;22.98;85.43;98027.03;5054847;28;20221;-70
2022/06/25 07:52:27;;;;;;;1.57;1.47;;;;;;;22.75;81.44;98029.78;5054588;28;20219;-71
2022/06/25 07:54:54;;;;;;;1.50;1.40;;;;;;;22.64;78.92;98024.84;5054495;28;20212;-71
2022/06/25 07:57:20;;;;;;;1.50;1.40;;;;;;;22.55;81.70;98020.56;5054754;28;20546;-71
2022/06/25 07:59:47;;;;;;;1.97;1.73;;;;;;;22.61;86.00;98019.81;5054689;28;20303;-71
2022/06/25 08:02:13;;;;;;;1.80;1.50;;;;;;;22.70;87.34;98023.28;5052882;28;20216;-72
2022/06/25 08:04:40;;;;;;;1.63;1.53;;;;;;;22.74;85.62;98022.72;5049564;28;20236;-70
2022/06/25 08:07:06;;;;;;;2.17;1.63;;;;;;;22.80;84.54;98016.59;5053673;28;20234;-73
2022/06/25 08:09:34;;;;;;;2.70;1.53;;;;;;;22.84;83.07;98019.75;5053751;28;20392;-73
2022/06/25 08:12:01;;;;;;;1.57;1.47;;;;;;;22.92;81.40;98009.72;5034942;28;20216;-74
2022/06/25 08:14:28;;;;;;;1.80;1.37;;;;;;;22.90;76.75;98003.69;5041877;28;20218;-72
2022/06/25 08:16:54;;;;;;;2.80;1.63;;;;;;;22.84;76.86;98007.13;5042439;28;20220;-72
2022/06/25 08:19:21;;;;;;;1.83;1.73;;;;;;;22.89;81.28;98006.56;5035700;28;20209;-75
2022/06/25 08:21:49;;;;;;;2.13;1.63;;;;;;;22.94;85.42;98010.38;5037266;28;20220;-72
2022/06/25 08:24:15;;;;;;;1.90;1.80;;;;;;;22.98;80.51;98005.44;5035981;28;20240;-72
2022/06/25 08:26:43;;;;;;;1.83;1.73;;;;;;;23.00;77.42;98004.25;5036230;28;20578;-73
2022/06/25 08:29:10;;;;;;;2.60;1.77;;;;;;;23.12;81.92;98010.84;5036593;28;20679;-72
2022/06/25 08:31:37;;;;;;;1.63;1.53;;;;;;;23.06;74.55;98008.03;5035442;28;20220;-73
2022/06/25 08:34:03;;;;;;;2.17;1.67;;;;;;;23.05;78.89;98007.19;5042640;28;20669;-75
2022/06/25 08:36:30;;;;;;;1.67;1.57;;;;;;;23.08;79.52;98012.22;5052837;28;20212;-75
2022/06/25 08:38:56;;;;;;;2.03;1.67;;;;;;;23.20;76.42;98005.38;5051861;28;20240;-73
2022/06/25 08:41:23;;;;;;;2.40;2.20;;;;;;;23.26;77.13;98010.03;5053763;28;20640;-74
2022/06/25 08:43:51;;;;;;;2.07;1.90;;;;;;;23.32;77.14;98005.72;5053571;28;20247;-73
2022/06/25 08:46:19;;;;;;;2.00;1.80;;;;;;;23.13;76.46;98000.88;5053683;28;20215;-72
2022/06/25 08:48:50;;;;;;;2.00;1.80;;;;;;;23.11;77.24;98003.75;5053399;28;20223;-72
2022/06/25 08:51:19;;;;;;;3.53;2.00;;;;;;;23.14;76.33;98005.25;5053351;28;20278;-72
2022/06/25 08:53:46;;;;;;;1.90;1.77;;;;;;;23.21;72.49;98001.66;5053199;28;20216;-72
2022/06/25 08:56:13;;;;;;;2.17;2.03;;;;;;;23.32;73.22;97998.47;5053229;28;20744;-72
2022/06/25 08:58:44;;;;;;;2.73;1.70;;;;;;;23.40;71.03;98001.06;5053294;28;20208;-73
2022/06/25 09:01:12;;;;;;;2.07;1.87;;;;;;;23.38;76.24;97997.72;5053419;28;20216;-73
2022/06/25 09:03:39;;;;;;;2.67;1.80;;;;;;;23.37;72.24;97990.66;5051430;28;20220;-72
2022/06/25 09:06:13;;;;;;;1.70;1.60;;;;;;;23.48;70.11;97984.75;5053188;28;20705;-72
2022/06/25 09:08:40;;;;;;;2.17;1.70;;;;;;;23.42;71.33;97990.09;5053147;28;20216;-72
2022/06/25 09:11:07;;;;;;;2.33;1.80;;;;;;;23.43;76.28;97976.41;5053588;28;20212;-72
2022/06/25 09:13:33;;;;;;;1.87;1.63;;;;;;;23.57;76.80;97975.53;5052835;28;20590;-72
2022/06/25 09:16:00;;;;;;;1.83;1.63;;;;;;;23.68;75.89;97982.28;5053387;28;20216;-72
2022/06/25 09:18:28;;;;;;;1.93;1.60;;;;;;;23.84;74.28;97977.47;5053410;28;20211;-72
2022/06/25 09:20:56;;;;;;;1.50;1.40;;;;;;;23.93;72.27;97976.34;5036698;28;20208;-72
2022/06/25 09:23:23;;;;;;;2.13;1.70;;;;;;;24.07;74.31;97980.84;5050444;28;20218;-72
2022/06/25 09:26:01;;;;;;;1.63;1.30;;;;;;;23.99;71.20;97980.97;5051181;28;20591;-72
2022/06/25 09:28:33;;;;;;;2.50;1.40;;;;;;;24.03;63.97;97976.84;5051212;28;20212;-72
2022/06/25 09:31:02;;;;;;;1.60;1.23;;;;;;;24.01;64.16;97978.91;5037197;28;20302;-72
2022/06/25 09:33:31;;;;;;;1.70;1.40;;;;;;;23.79;69.10;97963.75;5050756;28;20212;-72
2022/06/25 09:35:58;;;;;;;2.13;1.53;;;;;;;23.65;69.46;97975.41;5052567;28;20317;-72
2022/06/25 09:38:25;;;;;;;1.80;1.70;;;;;;;23.74;73.06;97968.88;5052776;28;20242;-72
2022/06/25 09:40:53;;;;;;;2.27;1.90;;;;;;;23.86;71.61;97964.63;5052763;28;20245;-72
2022/06/25 09:43:22;;;;;;;2.60;1.73;;;;;;;23.99;75.58;97964.78;5052889;28;20216;-72
2022/06/25 09:45:50;;;;;;;2.50;1.60;;;;;;;24.14;71.50;97957.44;5052946;28;20591;-72
2022/06/25 09:48:19;;;;;;;3.17;1.80;;;;;;;24.22;72.36;97970.81;5052647;28;20704;-72
2022/06/25 09:51:05;;;;;;;1.93;1.60;;;;;;;24.43;72.24;97959.94;5046185;28;20599;-72
2022/06/25 09:53:32;;;;;;;1.70;1.60;;;;;;;24.62;71.99;97966.56;5047873;28;20216;-72
2022/06/25 09:56:00;;;;;;;1.80;1.70;;;;;;;24.79;69.46;97968.75;5050794;28;20297;-72
2022/06/25 09:58:28;;;;;;;1.77;1.60;;;;;;;24.87;67.64;97971.28;5052792;28;20218;-72
2022/06/25 10:00:55;;;;;;;1.60;1.50;;;;;;;24.76;65.79;97979.97;5052545;28;20678;-73
2022/06/25 10:03:23;;;;;;;1.90;1.80;;;;;;;24.58;69.77;97971.53;5052845;28;20216;-73
2022/06/25 10:05:53;;;;;;;1.70;1.60;;;;;;;24.33;65.88;97962.16;5052685;28;20246;-73
2022/06/25 10:08:23;;;;;;;1.90;1.53;;;;;;;24.26;65.66;97963.16;5052411;28;20673;-72
2022/06/25 10:10:51;;;;;;;2.77;2.00;;;;;;;24.17;65.64;97962.44;5052707;28;20242;-72
2022/06/25 10:13:17;;;;;;;6.73;2.90;;;;;;;24.14;68.74;97949.31;5052719;28;20218;-73
2022/06/25 10:15:46;;;;;;;5.43;2.60;;;;;;;24.10;69.50;97952.63;5050681;28;20212;-73
2022/06/25 10:18:12;;;;;;;2.83;2.33;;;;;;;24.23;70.97;97950.03;5052626;28;20574;-73
2022/06/25 10:20:40;;;;;;;8.10;3.47;;;;;;;24.55;68.98;97950.28;5052663;28;20212;-73
2022/06/25 10:23:10;;;;;;;2.50;2.30;;;;;;;24.89;71.58;97953.03;5051067;28;20220;-72
2022/06/25 10:25:39;;;;;;;3.60;2.20;;;;;;;25.20;66.17;97942.56;5052996;28;20239;-72
2022/06/25 10:28:08;;;;;;;2.00;1.80;;;;;;;25.54;66.11;97947.09;5056088;28;20672;-73
2022/06/25 10:30:37;;;;;;;4.23;2.20;;;;;;;25.69;65.28;97945.03;5056157;28;20216;-74
2022/06/25 10:33:04;;;;;;;2.63;1.83;;;;;;;25.54;62.76;97937.06;5056029;28;20204;-73
2022/06/25 10:35:34;;;;;;;1.80;1.70;;;;;;;25.14;57.99;97935.25;5053268;28;20212;-73
2022/06/25 10:38:04;;;;;;;12.17;2.20;;;;;;;24.73;58.69;97931.72;5045223;28;20703;-72
2022/06/25 10:40:34;;;;;;;2.20;2.00;;;;;;;24.42;61.57;97931.28;5055930;28;20219;-72
2022/06/25 10:43:24;;;;;;;2.27;2.07;;;;;;;24.42;67.79;97933.13;5055976;28;20266;-72
2022/06/25 10:45:51;;;;;;;4.50;2.30;;;;;;;24.58;70.44;97922.06;5065233;28;20607;-73
2022/06/25 10:48:24;;;;;;;2.87;1.90;;;;;;;24.84;66.53;97928.44;5054450;28;20297;-73
2022/06/25 10:50:52;;;;;;;2.40;1.80;;;;;;;25.13;66.03;97921.91;5055840;28;20212;-72
2022/06/25 10:53:26;;;;;;;1.80;1.70;;;;;;;25.19;66.12;97921.97;5055415;28;20212;-73
2022/06/25 10:56:02;;;;;;;1.80;1.37;;;;;;;25.07;63.25;97915.47;5055446;28;20294;-73
2022/06/25 10:58:41;;;;;;;2.83;1.83;;;;;;;25.15;65.42;97911.72;5055905;28;20303;-74
2022/06/25 11:01:19;;;;;;;1.80;1.70;;;;;;;25.18;66.09;97906.75;5055095;28;20219;-72
2022/06/25 11:03:46;;;;;;;2.00;1.80;;;;;;;25.20;60.71;97912.81;5055861;28;20208;-72
2022/06/25 11:06:21;;;;;;;3.13;1.70;;;;;;;25.27;65.41;97902.88;5055489;28;20243;-73
2022/06/25 11:08:49;;;;;;;1.90;1.80;;;;;;;25.20;65.64;97907.41;5055304;28;20209;-73
2022/06/25 11:11:25;;;;;;;3.03;1.90;;;;;;;25.19;64.26;97905.72;5055643;28;20248;-72
2022/06/25 11:13:52;;;;;;;2.80;1.90;;;;;;;25.29;61.34;97900.78;5053866;28;20208;-73
2022/06/25 11:16:20;;;;;;;2.30;1.70;;;;;;;25.33;63.25;97902.06;5055571;28;20212;-73
2022/06/25 11:18:48;;;;;;;1.87;1.77;;;;;;;25.56;63.61;97897.13;5055470;28;20223;-73
2022/06/25 11:21:30;;;;;;;1.90;1.80;;;;;;;25.63;61.98;97902.53;5055473;28;20222;-73
2022/06/25 11:24:14;;;;;;;1.90;1.80;;;;;;;25.67;62.33;97904.59;5055045;28;20212;-73
2022/06/25 11:29:30;;;;;;;1.80;1.70;;;;;;;26.08;58.44;97905.31;5054965;28;20681;-73
2022/06/25 11:31:58;;;;;;;2.83;2.00;;;;;;;26.15;63.83;97898.00;5055109;28;20212;-72
2022/06/25 11:34:26;;;;;;;2.33;1.70;;;;;;;26.18;62.27;97894.91;5053060;28;20208;-73
2022/06/25 11:36:58;;;;;;;3.07;1.87;;;;;;;26.16;61.17;97888.03;5054414;28;20212;-73
2022/06/25 11:39:24;;;;;;;2.00;1.80;;;;;;;26.09;61.43;97893.44;5053433;28;20248;-73
2022/06/25 11:41:52;;;;;;;1.80;1.70;;;;;;;25.96;60.33;97893.44;5054597;28;20299;-73
2022/06/25 11:44:19;;;;;;;2.00;1.80;;;;;;;26.06;61.88;97899.28;5054807;28;20224;-73
2022/06/25 11:46:47;;;;;;;1.80;1.60;;;;;;;26.06;63.70;97899.28;5054900;28;20219;-74
2022/06/25 11:49:14;;;;;;;2.57;1.70;;;;;;;26.03;61.60;97886.13;5054451;28;20208;-75